createdAt,value
2023-04-15T00:10:40.006Z,8.8
2023-04-15T00:30:40.080Z,8.8
2023-04-15T00:50:39.993Z,8.79
2023-04-15T01:10:39.464Z,8.79
2023-04-15T01:30:39.975Z,8.78
2023-04-15T01:50:39.983Z,8.77
2023-04-15T02:10:39.836Z,8.76
2023-04-15T03:30:39.958Z,8.71
2023-04-15T05:30:39.780Z,8.61
2023-04-15T05:50:39.897Z,8.6
2023-04-15T06:10:39.890Z,8.59
2023-04-15T06:30:39.132Z,8.57
2023-04-15T06:50:39.880Z,8.53
2023-04-15T07:10:39.370Z,8.51
2023-04-15T07:30:39.903Z,8.5
2023-04-15T07:50:39.767Z,8.49
2023-04-15T08:10:39.886Z,8.47
2023-04-15T08:30:38.732Z,8.44
2023-04-15T08:50:39.873Z,8.41
2023-04-15T09:10:39.855Z,8.4
2023-04-15T09:30:39.383Z,8.39
2023-04-15T09:50:39.846Z,8.38
2023-04-15T10:10:39.847Z,8.36
2023-04-15T10:30:39.827Z,8.34
2023-04-15T10:50:39.849Z,8.32
2023-04-15T11:10:39.825Z,8.31
2023-04-15T11:30:39.822Z,8.3
2023-04-15T11:50:39.824Z,8.3
2023-04-15T12:10:39.817Z,8.3
2023-04-15T12:30:39.792Z,8.29
2023-04-15T12:50:39.817Z,8.29
2023-04-15T13:10:39.796Z,8.29
2023-04-15T13:30:39.806Z,8.29
2023-04-15T13:50:41.618Z,8.29
2023-04-15T14:10:39.627Z,8.29
2023-04-15T14:30:39.832Z,8.29
2023-04-15T14:50:38.985Z,8.29
2023-04-15T15:10:48.850Z,8.29
2023-04-15T18:50:39.540Z,8.31
2023-04-15T19:10:39.575Z,8.31
2023-04-15T19:30:39.701Z,8.31
2023-04-15T19:50:39.683Z,8.31
2023-04-15T20:10:39.126Z,8.31
2023-04-15T20:30:39.661Z,8.31
2023-04-15T20:50:39.655Z,8.31
2023-04-15T21:10:39.518Z,8.31
2023-04-15T21:30:39.683Z,8.31
2023-04-15T21:50:39.685Z,8.31
2023-04-15T22:10:39.619Z,8.3
2023-04-15T22:30:39.615Z,8.3
2023-04-15T22:50:39.630Z,8.3
2023-04-15T23:10:39.602Z,8.3
2023-04-15T23:30:39.627Z,8.3
2023-04-15T23:50:39.466Z,8.29
